Currently 64°F in Hemet, California, USA
64°F
70°F / 49°F
calm
0.00"
Sunday, December 9, 2018 3:41 PM PST

Hemet, California Weather Summary
Last 36 Hours

Temperature Winds Hourly Humidity Dewpoint
Time Report Norm Report Norm Max Gusts Precip. Rpt. Norm Rpt. Norm Pressure
1Sun 03:41 PM  64.2°F  64°F  calm  1 mph  5 mph  0.00"  41%  37%  39°F  36°F  30.15"
Sun 03:00 PM  66.0°F  64°F  calm  1 mph  none  0.00"  42%  35%  41°F  35°F  30.12"
Sun 02:00 PM  69.1°F  64°F  calm  1 mph  5 mph  0.00"  36%  34%  40°F  35°F  30.12"
2Sun 01:07 PM  70.0°F  64°F  calm  1 mph  5 mph  ----  33%  35%  38°F  35°F  30.15"
Sun 01:00 PM  69.8°F  64°F  calm  1 mph  5 mph  0.00"  31%  35%  37°F  35°F  30.15"
Sun 12:00 PM  67.8°F  62°F  calm  1 mph  1 mph  0.00"  31%  37%  35°F  35°F  30.18"
Sun 11:00 AM  63.0°F  60°F  calm  1 mph  5 mph  0.00"  43%  41%  39°F  35°F  30.23"
Sun 10:01 AM  63.3°F  58°F  calm  1 mph  3 mph  0.00"  41%  45%  38°F  35°F  30.24"
Sun 09:00 AM  59.0°F  55°F  calm  calm  none  0.00"  41%  48%  34°F  35°F  30.25"
Sun 08:00 AM  51.1°F  51°F  calm  calm  none  0.00"  47%  50%  31°F  32°F  30.24"
Sun 07:00 AM  49.1°F  48°F  calm  1 mph  none  0.00"  54%  51%  32°F  30°F  30.22"
3Sun 06:24 AM  48.6°F  48°F  calm  1 mph  none  ----  55%  50%  32°F  30°F  30.21"
Sun 06:00 AM  49.5°F  48°F  calm  1 mph  none  0.00"  56%  50%  34°F  30°F  30.21"
Sun 05:00 AM  49.8°F  49°F  calm  1 mph  none  0.00"  58%  51%  35°F  30°F  30.20"
Sun 04:00 AM  50.5°F  49°F  calm  1 mph  none  0.00"  62%  51%  37°F  30°F  30.20"
Sun 03:00 AM  48.9°F  49°F  calm  1 mph  none  0.00"  61%  51%  36°F  31°F  30.22"
Sun 02:00 AM  50.4°F  49°F  calm  1 mph  none  0.00"  63%  51%  38°F  31°F  30.22"
Sun 01:00 AM  49.6°F  49°F  calm  1 mph  none  0.00"  63%  51%  37°F  31°F  30.22"
Sun 12:00 AM  51.1°F  50°F  calm  1 mph  none  0.00"  62%  50%  38°F  31°F  30.23"
Sat 11:00 PM  52.0°F  50°F  calm  1 mph  none  0.00"  60%  50%  38°F  32°F  30.25"
Sat 10:00 PM  52.2°F  51°F  calm  1 mph  none  0.00"  60%  50%  38°F  32°F  30.25"
Sat 09:00 PM  53.2°F  52°F  calm  1 mph  none  0.00"  60%  49%  39°F  32°F  30.23"
Sat 08:00 PM  54.0°F  52°F  calm  1 mph  none  0.00"  60%  48%  40°F  33°F  30.22"
Sat 07:00 PM  55.0°F  53°F  calm  1 mph  none  0.00"  59%  47%  40°F  33°F  30.21"
Sat 06:00 PM  56.8°F  55°F  calm  1 mph  none  0.00"  55%  46%  40°F  34°F  30.20"
Sat 05:00 PM  61.0°F  58°F  calm  1 mph  none  0.00"  46%  43%  39°F  34°F  30.18"
Sat 04:00 PM  67.6°F  63°F  calm  1 mph  3 mph  0.00"  38%  38%  40°F  36°F  30.16"
Sat 03:00 PM  69.1°F  65°F  calm  1 mph  3 mph  0.00"  39%  34%  42°F  35°F  30.17"
Sat 02:00 PM  67.8°F  65°F  calm  1 mph  3 mph  0.00"  37%  34%  40°F  35°F  30.18"
Sat 01:00 PM  66.0°F  64°F  calm  1 mph  3 mph  0.00"  39%  35%  39°F  35°F  30.18"
Sat 12:00 PM  63.5°F  63°F  calm  1 mph  3 mph  0.00"  42%  37%  39°F  35°F  30.20"
Sat 11:00 AM  61.0°F  60°F  calm  1 mph  3 mph  0.00"  48%  40%  40°F  35°F  30.22"
Sat 10:00 AM  60.1°F  58°F  calm  1 mph  none  0.00"  52%  45%  42°F  35°F  30.23"
Sat 09:00 AM  58.6°F  55°F  calm  calm  none  0.00"  47%  47%  38°F  35°F  30.24"
Sat 08:00 AM  48.7°F  51°F  calm  calm  none  0.00"  63%  49%  36°F  32°F  30.22"
Sat 07:00 AM  46.2°F  48°F  calm  1 mph  none  0.00"  68%  50%  36°F  30°F  30.20"
Sat 06:00 AM  45.7°F  49°F  calm  1 mph  none  0.00"  68%  50%  35°F  30°F  30.19"
Sat 05:00 AM  46.8°F  49°F  calm  calm  none  0.00"  69%  50%  37°F  30°F  30.18"
Sat 04:00 AM  46.8°F  49°F  calm  1 mph  none  0.00"  73%  50%  38°F  30°F  30.16"

  1. Current weather data. No green row appears if the current weather data is also the high or low for the current day.
  2. High temperature for the current day.
  3. Low temperature for the current day.

The Hemet weather pages are a service of WeatherCurrents. Hemet, California is located in the San Jacinto Valley, in western Riverside County, at the foot of the San Jacinto mountains.
Copyright ©Sun Dec 09 15:42:50 PST 2018  WeatherCurrents. All rights reserved. - Submit questions and comments - Privacy Policy

This page automatically refreshes every 10 minutes.